Time;durP1;ratioP1;P1;durP2;ratioP2;P2;SDS_P1;SDS_P2;PMS_P1;PMS_P2;Temp;Humidity;BMP_temperature;BMP_pressure;BME280_temperature;BME280_humidity;BME280_pressure;Samples;Min_cycle;Max_cycle;Signal;HPM_P1;HPM_P2
2024/01/13 00:01:45;;;;;;;24.20;17.00;;;4.10;62.20;;;;;;4993590;28;20272;-84
2024/01/13 00:04:11;;;;;;;21.90;16.73;;;4.10;62.40;;;;;;5005100;28;20250;-84
2024/01/13 00:06:36;;;;;;;21.43;15.40;;;4.10;62.30;;;;;;4994082;28;20805;-86
2024/01/13 00:09:02;;;;;;;23.80;17.03;;;4.20;62.20;;;;;;5006601;28;20579;-85
2024/01/13 00:11:28;;;;;;;22.33;16.67;;;4.20;62.30;;;;;;4995434;28;20523;-84
2024/01/13 00:13:53;;;;;;;25.10;16.60;;;4.30;62.20;;;;;;4992468;28;20202;-84
2024/01/13 00:16:19;;;;;;;23.47;17.17;;;4.30;61.80;;;;;;4994852;28;20187;-86
2024/01/13 00:18:45;;;;;;;25.37;17.30;;;4.30;61.80;;;;;;4992060;28;20191;-85
2024/01/13 00:21:10;;;;;;;24.03;17.30;;;4.40;62.00;;;;;;5004641;28;20772;-85
2024/01/13 00:23:37;;;;;;;22.27;16.43;;;4.30;61.90;;;;;;4994889;28;20175;-85
2024/01/13 00:29:25;;;;;;;23.73;17.10;;;4.20;61.70;;;;;;5011719;28;20222;-84
2024/01/13 00:31:50;;;;;;;24.73;18.27;;;4.20;61.90;;;;;;5011341;28;20273;-84
2024/01/13 00:34:16;;;;;;;26.63;18.40;;;4.10;61.90;;;;;;5012775;28;20652;-83
2024/01/13 00:36:42;;;;;;;23.23;18.07;;;4.10;62.00;;;;;;4993262;28;20191;-85
2024/01/13 00:39:08;;;;;;;28.50;18.53;;;4.20;62.10;;;;;;5001503;28;20186;-84
2024/01/13 00:41:45;;;;;;;24.07;18.87;;;4.20;62.00;;;;;;4994953;28;20175;-85
2024/01/13 00:44:11;;;;;;;24.90;18.23;;;4.10;61.90;;;;;;5003600;28;20224;-85
2024/01/13 00:46:36;;;;;;;27.87;19.60;;;4.10;62.00;;;;;;4987441;28;20177;-85
2024/01/13 00:49:02;;;;;;;28.10;17.57;;;4.10;62.00;;;;;;4994086;28;20206;-85
2024/01/13 00:51:30;;;;;;;24.60;17.77;;;4.20;62.20;;;;;;5005988;28;20273;-85
2024/01/13 00:53:55;;;;;;;26.60;16.73;;;4.20;62.20;;;;;;4994645;28;20529;-86
2024/01/13 00:56:21;;;;;;;24.67;16.87;;;4.20;62.20;;;;;;5011716;28;20201;-86
2024/01/13 00:58:47;;;;;;;24.33;17.07;;;4.30;62.90;;;;;;4992819;28;20202;-84
2024/01/13 01:01:13;;;;;;;25.77;17.40;;;4.40;62.10;;;;;;4991882;28;20661;-85
2024/01/13 01:03:38;;;;;;;24.60;15.20;;;4.30;61.80;;;;;;5012736;28;20205;-85
2024/01/13 01:06:04;;;;;;;24.17;16.93;;;4.30;61.80;;;;;;5003748;28;20178;-86
2024/01/13 01:09:07;;;;;;;21.83;15.80;;;4.30;61.80;;;;;;5011675;28;20255;-82
2024/01/13 01:11:33;;;;;;;24.00;17.03;;;4.30;61.80;;;;;;5008258;28;20184;-85
2024/01/13 01:13:59;;;;;;;23.30;17.20;;;4.30;61.80;;;;;;4994831;28;20270;-86
2024/01/13 01:16:24;;;;;;;24.43;16.87;;;4.30;61.90;;;;;;4986523;28;20520;-85
2024/01/13 01:18:52;;;;;;;22.00;16.37;;;4.30;62.50;;;;;;4993995;28;20214;-85
2024/01/13 01:21:17;;;;;;;22.23;17.10;;;4.30;61.60;;;;;;5012554;28;20182;-85
2024/01/13 01:23:43;;;;;;;22.67;16.47;;;4.30;61.70;;;;;;4994367;28;20635;-85
2024/01/13 01:26:08;;;;;;;20.83;15.90;;;4.30;61.70;;;;;;5012229;28;20728;-84
2024/01/13 01:28:34;;;;;;;20.73;14.40;;;4.40;61.60;;;;;;5000450;28;20221;-84
2024/01/13 01:31:00;;;;;;;20.60;15.30;;;4.40;61.50;;;;;;5002633;28;20553;-85
2024/01/13 01:33:27;;;;;;;20.70;15.43;;;4.40;61.20;;;;;;5011684;28;20189;-84
2024/01/13 01:35:53;;;;;;;20.70;15.20;;;4.40;61.20;;;;;;4994085;28;20233;-85
2024/01/13 01:38:18;;;;;;;23.20;16.20;;;4.40;61.20;;;;;;4994039;28;20187;-84
2024/01/13 01:40:54;;;;;;;17.23;13.90;;;4.40;61.30;;;;;;4991491;28;20195;-84
2024/01/13 01:43:20;;;;;;;15.07;12.77;;;4.50;61.30;;;;;;5004507;28;20217;-84
2024/01/13 01:45:51;;;;;;;17.60;13.73;;;4.50;60.90;;;;;;4990397;28;20219;-84
2024/01/13 01:48:18;;;;;;;19.33;13.77;;;4.50;60.70;;;;;;5018510;28;20260;-84
2024/01/13 01:50:44;;;;;;;16.40;12.67;;;4.50;60.20;;;;;;5017756;28;20197;-85
2024/01/13 01:53:11;;;;;;;13.97;11.57;;;4.40;60.10;;;;;;5008371;28;20183;-85
2024/01/13 01:55:37;;;;;;;16.97;11.93;;;4.40;60.10;;;;;;4991785;28;20183;-84
2024/01/13 01:58:04;;;;;;;15.57;11.57;;;4.50;60.20;;;;;;5002526;28;20190;-85
2024/01/13 02:00:31;;;;;;;14.10;11.77;;;4.50;60.20;;;;;;4999548;28;20178;-84
2024/01/13 02:02:57;;;;;;;16.80;12.00;;;4.60;60.40;;;;;;4992900;28;20188;-85
2024/01/13 02:05:23;;;;;;;15.30;11.03;;;4.80;60.30;;;;;;5010047;28;20210;-85
2024/01/13 02:07:50;;;;;;;14.37;10.00;;;4.70;59.80;;;;;;4990096;28;20219;-84
2024/01/13 02:10:19;;;;;;;15.13;10.07;;;4.80;59.70;;;;;;5006786;28;20186;-85
2024/01/13 02:12:46;;;;;;;15.17;10.33;;;4.60;59.50;;;;;;5008919;28;20175;-86
2024/01/13 02:15:11;;;;;;;15.30;10.40;;;4.70;59.60;;;;;;5014967;28;20217;-84
2024/01/13 02:17:37;;;;;;;14.43;10.17;;;4.60;59.40;;;;;;4995228;28;20183;-85
2024/01/13 02:20:07;;;;;;;14.30;10.60;;;4.70;59.60;;;;;;4993900;28;20187;-85
2024/01/13 02:22:33;;;;;;;15.63;11.30;;;4.70;59.60;;;;;;5031853;28;20186;-83
2024/01/13 02:25:03;;;;;;;14.00;10.37;;;4.70;59.70;;;;;;5010968;28;20206;-85
2024/01/13 02:27:28;;;;;;;16.53;12.10;;;4.70;59.40;;;;;;5017238;28;20188;-85
2024/01/13 02:29:54;;;;;;;13.73;11.40;;;4.80;59.30;;;;;;5013520;28;20195;-85
2024/01/13 02:32:20;;;;;;;16.20;11.00;;;4.70;59.10;;;;;;5020995;28;20261;-85
2024/01/13 02:34:46;;;;;;;14.97;12.17;;;4.60;59.30;;;;;;4981878;28;20183;-86
2024/01/13 02:37:12;;;;;;;15.07;12.03;;;4.70;59.40;;;;;;5018882;28;20631;-85
2024/01/13 02:39:37;;;;;;;16.70;13.07;;;4.70;59.30;;;;;;5006603;28;20186;-84
2024/01/13 02:42:03;;;;;;;21.47;14.00;;;4.70;59.00;;;;;;4994591;28;20183;-86
2024/01/13 02:44:29;;;;;;;16.90;13.03;;;4.60;59.00;;;;;;5005806;28;20226;-84
2024/01/13 02:46:55;;;;;;;17.97;13.50;;;4.70;59.10;;;;;;4989919;28;20219;-85
2024/01/13 02:49:21;;;;;;;18.30;13.90;;;4.60;59.10;;;;;;5006502;28;20218;-83
2024/01/13 02:51:46;;;;;;;19.60;13.30;;;4.60;59.20;;;;;;5010384;28;20197;-84
2024/01/13 02:54:12;;;;;;;18.77;14.33;;;4.60;59.20;;;;;;4982987;28;20193;-84
2024/01/13 02:56:38;;;;;;;17.93;13.57;;;4.60;59.20;;;;;;4992556;28;20266;-85
2024/01/13 02:59:03;;;;;;;16.60;14.03;;;4.70;59.40;;;;;;5010629;28;20282;-84
2024/01/13 03:01:30;;;;;;;19.30;13.53;;;4.70;59.30;;;;;;4992121;28;20289;-85
2024/01/13 03:03:56;;;;;;;17.80;13.63;;;4.70;59.20;;;;;;4994972;28;20183;-85
2024/01/13 03:06:23;;;;;;;16.03;13.27;;;4.60;58.90;;;;;;4993442;28;20199;-85
2024/01/13 03:08:49;;;;;;;15.73;13.30;;;4.60;59.10;;;;;;5018140;28;20214;-84
2024/01/13 03:11:14;;;;;;;15.40;11.57;;;4.60;59.20;;;;;;4992780;28;20286;-85
2024/01/13 03:13:40;;;;;;;15.77;12.47;;;4.70;59.30;;;;;;4978153;28;20541;-85
2024/01/13 03:16:06;;;;;;;17.40;13.40;;;4.60;59.20;;;;;;4995429;28;20544;-83
2024/01/13 03:18:32;;;;;;;18.07;12.30;;;4.70;59.10;;;;;;4996568;28;20223;-85
2024/01/13 03:20:57;;;;;;;18.57;12.97;;;4.60;59.10;;;;;;5006929;28;20222;-85
2024/01/13 03:23:23;;;;;;;16.30;12.40;;;4.60;59.20;;;;;;4990220;28;20179;-85
2024/01/13 03:25:48;;;;;;;16.73;11.90;;;4.70;59.20;;;;;;4984191;28;20195;-85
2024/01/13 03:28:14;;;;;;;13.90;11.67;;;4.60;59.20;;;;;;4984148;28;20223;-85
2024/01/13 03:30:40;;;;;;;18.40;12.90;;;4.50;59.10;;;;;;5014403;28;20190;-85
2024/01/13 03:33:05;;;;;;;19.47;13.57;;;4.60;59.30;;;;;;4995018;28;20194;-85
2024/01/13 03:35:31;;;;;;;16.27;12.63;;;4.70;59.40;;;;;;5000844;28;20291;-85
2024/01/13 03:37:57;;;;;;;17.17;13.07;;;4.60;59.30;;;;;;5012444;28;20206;-84
2024/01/13 03:40:22;;;;;;;20.03;13.90;;;4.80;59.40;;;;;;4992788;28;20194;-85
2024/01/13 03:42:48;;;;;;;19.30;13.60;;;4.60;59.20;;;;;;4995136;28;20175;-85
2024/01/13 03:45:14;;;;;;;17.53;13.87;;;4.60;59.00;;;;;;4996627;28;20309;-84
2024/01/13 03:47:40;;;;;;;20.43;13.80;;;4.60;59.20;;;;;;5011729;28;20261;-86
2024/01/13 03:50:07;;;;;;;17.50;12.97;;;4.60;59.20;;;;;;4995143;28;20190;-84
2024/01/13 03:52:33;;;;;;;20.70;14.53;;;4.60;59.30;;;;;;4999826;28;20183;-86
2024/01/13 03:54:59;;;;;;;18.80;14.10;;;4.60;59.30;;;;;;4995788;28;20178;-84
2024/01/13 03:57:25;;;;;;;20.07;15.40;;;4.80;59.50;;;;;;4989492;28;20190;-85
2024/01/13 03:59:50;;;;;;;23.10;15.87;;;4.80;59.40;;;;;;4995637;28;20190;-85
2024/01/13 04:02:16;;;;;;;18.47;14.77;;;4.80;59.30;;;;;;5004620;28;20257;-84
2024/01/13 04:04:42;;;;;;;18.80;14.77;;;4.60;59.00;;;;;;5026449;28;20190;-85
2024/01/13 04:07:08;;;;;;;20.93;15.67;;;4.60;59.10;;;;;;4995716;28;20174;-84
2024/01/13 04:12:56;;;;;;;20.57;15.90;;;4.60;59.40;;;;;;5016805;28;20206;-85
2024/01/13 04:15:22;;;;;;;18.73;15.13;;;4.70;59.30;;;;;;5023816;28;20679;-85
2024/01/13 04:17:48;;;;;;;21.67;15.47;;;4.70;59.30;;;;;;5018150;28;20261;-84
2024/01/13 04:20:13;;;;;;;20.30;15.80;;;4.60;59.30;;;;;;5016009;28;20268;-84
2024/01/13 04:22:39;;;;;;;19.37;15.77;;;4.60;59.30;;;;;;5001934;28;20217;-85
2024/01/13 04:25:05;;;;;;;24.93;14.33;;;4.70;59.30;;;;;;5012109;28;20209;-85
2024/01/13 04:27:31;;;;;;;21.90;16.67;;;4.70;59.40;;;;;;4995517;28;20190;-83
2024/01/13 04:29:56;;;;;;;18.40;15.00;;;4.60;59.20;;;;;;4995082;28;20190;-85
2024/01/13 04:32:22;;;;;;;23.37;16.77;;;4.60;59.40;;;;;;5013075;28;20187;-84
2024/01/13 04:34:48;;;;;;;24.00;16.87;;;4.50;59.40;;;;;;4994712;28;20676;-84
2024/01/13 04:37:14;;;;;;;22.50;17.03;;;4.50;59.50;;;;;;5005879;28;20267;-85
2024/01/13 04:39:39;;;;;;;21.63;16.13;;;4.60;59.80;;;;;;4985093;28;20254;-83
2024/01/13 04:42:05;;;;;;;21.73;15.73;;;4.50;59.70;;;;;;4989331;28;20190;-84
2024/01/13 04:44:31;;;;;;;23.10;16.70;;;4.60;59.90;;;;;;4993048;28;20227;-85
2024/01/13 04:46:56;;;;;;;25.23;17.23;;;4.70;60.00;;;;;;4990352;28;20639;-85
2024/01/13 04:49:22;;;;;;;27.07;17.60;;;4.60;59.90;;;;;;5007872;28;20220;-85
2024/01/13 04:51:47;;;;;;;23.93;17.77;;;4.50;60.00;;;;;;4998791;28;20891;-86
2024/01/13 04:54:13;;;;;;;25.80;18.40;;;4.60;60.40;;;;;;5008649;28;20182;-85
2024/01/13 04:56:39;;;;;;;23.63;17.27;;;4.60;60.50;;;;;;4991857;28;20202;-86
2024/01/13 04:59:04;;;;;;;20.40;16.03;;;4.60;60.80;;;;;;4999361;28;20543;-85
2024/01/13 05:01:30;;;;;;;25.93;18.30;;;4.60;61.10;;;;;;5007944;28;20178;-84
2024/01/13 05:03:55;;;;;;;23.70;17.60;;;4.50;61.10;;;;;;4993388;28;20187;-85
2024/01/13 05:06:21;;;;;;;21.13;16.73;;;4.50;61.10;;;;;;4992811;28;20197;-86
2024/01/13 05:08:46;;;;;;;26.23;18.10;;;4.60;61.50;;;;;;5008369;28;20211;-86
2024/01/13 05:11:13;;;;;;;23.63;17.23;;;4.60;61.40;;;;;;5009759;28;20624;-86
2024/01/13 05:13:39;;;;;;;20.57;17.27;;;4.60;61.20;;;;;;4993310;28;20191;-84
2024/01/13 05:16:04;;;;;;;20.60;16.17;;;4.60;61.00;;;;;;4990582;28;20662;-86
2024/01/13 05:18:30;;;;;;;22.00;15.70;;;4.70;61.00;;;;;;4992884;28;20273;-84
2024/01/13 05:20:56;;;;;;;22.33;16.90;;;4.70;60.70;;;;;;5008615;28;20187;-86
2024/01/13 05:23:21;;;;;;;21.87;16.30;;;4.70;60.60;;;;;;5001175;28;20183;-84
2024/01/13 05:25:47;;;;;;;19.23;15.17;;;4.60;60.40;;;;;;4993121;28;20176;-84
2024/01/13 05:28:12;;;;;;;21.53;16.03;;;4.60;60.40;;;;;;5011894;28;20651;-84
2024/01/13 05:30:38;;;;;;;21.30;15.03;;;4.70;60.60;;;;;;5011064;28;20247;-85
2024/01/13 05:33:04;;;;;;;20.63;15.73;;;4.70;60.60;;;;;;4993279;28;20631;-84
2024/01/13 05:35:29;;;;;;;23.23;15.67;;;4.70;61.40;;;;;;4989708;28;20179;-84
2024/01/13 05:37:55;;;;;;;20.77;15.17;;;4.70;60.70;;;;;;4990802;28;20219;-84
2024/01/13 05:40:20;;;;;;;16.97;13.47;;;4.70;60.50;;;;;;5023218;28;20238;-84
2024/01/13 05:42:46;;;;;;;22.17;14.93;;;4.70;60.60;;;;;;5021660;28;20250;-85
2024/01/13 05:45:12;;;;;;;20.77;15.00;;;4.70;60.50;;;;;;4998917;28;20230;-85
2024/01/13 05:47:37;;;;;;;19.77;13.87;;;4.70;60.90;;;;;;5012365;28;20186;-85
2024/01/13 05:50:04;;;;;;;22.67;16.07;;;4.70;60.20;;;;;;5011773;28;20186;-86
2024/01/13 05:52:30;;;;;;;21.70;15.60;;;4.60;60.40;;;;;;4994923;28;20172;-85
2024/01/13 05:54:56;;;;;;;21.17;16.63;;;4.60;60.70;;;;;;4994172;28;20190;-83
2024/01/13 05:57:21;;;;;;;22.03;16.80;;;4.60;61.00;;;;;;4996496;28;20187;-84
2024/01/13 05:59:47;;;;;;;23.43;16.97;;;4.70;61.20;;;;;;5007227;28;20555;-86
2024/01/13 06:02:13;;;;;;;20.17;15.70;;;4.70;61.20;;;;;;4994111;28;20219;-85
2024/01/13 06:04:40;;;;;;;24.03;18.30;;;4.60;61.00;;;;;;4993759;28;20227;-85
2024/01/13 06:07:06;;;;;;;23.80;17.30;;;4.70;61.30;;;;;;5007237;28;20182;-85
2024/01/13 06:09:32;;;;;;;25.37;18.07;;;4.80;61.60;;;;;;5011288;28;20211;-85
2024/01/13 06:11:57;;;;;;;26.33;17.33;;;4.60;61.40;;;;;;4992000;28;20187;-84
2024/01/13 06:14:23;;;;;;;23.50;16.73;;;4.70;61.80;;;;;;5004694;28;20190;-85
2024/01/13 06:16:49;;;;;;;25.87;17.00;;;4.70;61.80;;;;;;4983339;28;20182;-85
2024/01/13 06:19:14;;;;;;;24.93;17.23;;;4.70;61.50;;;;;;5000068;28;20194;-85
2024/01/13 06:21:43;;;;;;;23.27;16.27;;;4.70;61.50;;;;;;5011334;28;20651;-86
2024/01/13 06:24:11;;;;;;;23.43;17.30;;;4.70;61.50;;;;;;5009787;28;20187;-84
2024/01/13 06:26:41;;;;;;;27.50;17.37;;;4.70;61.50;;;;;;5010980;28;20190;-85
2024/01/13 06:29:07;;;;;;;25.47;16.13;;;4.70;61.60;;;;;;5010969;28;20207;-85
2024/01/13 06:31:33;;;;;;;25.60;16.77;;;4.70;61.30;;;;;;5007928;28;20200;-84
2024/01/13 06:33:59;;;;;;;20.90;15.13;;;4.70;61.40;;;;;;5010103;28;20183;-84
2024/01/13 06:36:24;;;;;;;24.20;15.80;;;4.90;61.60;;;;;;4993079;28;20753;-85
2024/01/13 06:38:50;;;;;;;22.67;14.83;;;4.70;61.20;;;;;;4994814;28;20194;-84
2024/01/13 06:41:16;;;;;;;22.90;15.83;;;4.70;61.30;;;;;;5010607;28;20294;-84
2024/01/13 06:43:41;;;;;;;21.87;15.00;;;4.80;61.50;;;;;;5011421;28;20265;-84
2024/01/13 06:46:08;;;;;;;22.23;14.40;;;4.80;61.30;;;;;;4992704;28;20815;-85
2024/01/13 06:48:34;;;;;;;22.53;15.50;;;4.80;61.10;;;;;;4994354;28;20215;-85
2024/01/13 06:50:59;;;;;;;22.23;14.73;;;4.80;61.10;;;;;;4994922;28;20223;-84
2024/01/13 06:53:25;;;;;;;22.03;15.10;;;4.80;61.10;;;;;;5009180;28;20179;-85
2024/01/13 06:55:51;;;;;;;21.37;15.77;;;5.00;62.10;;;;;;4995717;28;20255;-85
2024/01/13 06:58:16;;;;;;;21.23;14.90;;;5.00;61.30;;;;;;4993567;28;20699;-85
2024/01/13 07:00:42;;;;;;;23.53;16.73;;;4.90;61.00;;;;;;5010964;28;20195;-86
2024/01/13 07:03:08;;;;;;;20.20;15.17;;;5.00;60.90;;;;;;4992128;28;20187;-85
2024/01/13 07:05:33;;;;;;;22.43;15.97;;;4.80;60.60;;;;;;4994541;28;20527;-85
2024/01/13 07:08:00;;;;;;;28.43;17.00;;;4.80;60.60;;;;;;5013318;28;20202;-86
2024/01/13 07:10:28;;;;;;;26.50;17.13;;;4.70;60.60;;;;;;5005678;28;20290;-84
2024/01/13 07:12:53;;;;;;;29.67;18.37;;;4.90;60.90;;;;;;5015346;28;20240;-84
2024/01/13 07:15:19;;;;;;;27.90;18.93;;;4.90;60.90;;;;;;5013791;28;20191;-83
2024/01/13 07:17:45;;;;;;;24.97;16.73;;;4.70;60.60;;;;;;5013016;28;20195;-84
2024/01/13 07:20:11;;;;;;;28.60;18.10;;;4.90;60.90;;;;;;4979153;28;20207;-84
2024/01/13 07:22:37;;;;;;;28.10;18.00;;;4.80;60.80;;;;;;4988783;28;20218;-84
2024/01/13 07:25:03;;;;;;;29.93;17.33;;;4.80;60.70;;;;;;5006299;28;20215;-86
2024/01/13 07:27:29;;;;;;;32.53;20.13;;;4.80;60.60;;;;;;5008612;28;20187;-84
2024/01/13 07:29:55;;;;;;;31.10;19.80;;;4.80;61.50;;;;;;5008189;28;20217;-84
2024/01/13 07:32:20;;;;;;;28.63;17.90;;;4.90;60.80;;;;;;5008471;28;20195;-86
2024/01/13 07:34:46;;;;;;;29.47;18.83;;;4.90;60.60;;;;;;4987821;28;20202;-84
2024/01/13 07:37:12;;;;;;;35.83;19.93;;;5.00;60.60;;;;;;4991103;28;20230;-84
2024/01/13 07:39:37;;;;;;;29.43;18.97;;;4.90;60.60;;;;;;4992567;28;20194;-85
2024/01/13 07:42:03;;;;;;;33.33;21.70;;;5.00;61.40;;;;;;4990389;28;20237;-86
2024/01/13 07:44:29;;;;;;;36.90;22.20;;;4.90;60.40;;;;;;4990111;28;20219;-86
2024/01/13 07:47:00;;;;;;;32.87;20.90;;;4.90;60.40;;;;;;4991530;28;20602;-84
2024/01/13 07:49:27;;;;;;;31.20;21.27;;;4.90;60.70;;;;;;5008992;28;20209;-84
2024/01/13 07:51:54;;;;;;;30.50;20.17;;;4.80;61.10;;;;;;5008456;28;20210;-86
2024/01/13 07:54:20;;;;;;;33.77;21.23;;;4.80;61.20;;;;;;4990536;28;20183;-83
2024/01/13 07:56:47;;;;;;;31.80;19.53;;;5.00;61.60;;;;;;5006000;28;20262;-84
2024/01/13 07:59:13;;;;;;;33.17;19.80;;;4.90;61.10;;;;;;5007875;28;20190;-84
2024/01/13 08:01:39;;;;;;;27.83;17.83;;;4.80;61.10;;;;;;5006464;28;21007;-83
2024/01/13 08:04:06;;;;;;;32.60;20.73;;;4.90;61.40;;;;;;4980536;28;20643;-83
2024/01/13 08:06:32;;;;;;;31.80;21.07;;;5.00;61.50;;;;;;4976145;28;20191;-84
2024/01/13 08:08:57;;;;;;;30.07;18.60;;;5.20;61.20;;;;;;4999435;28;20543;-85
2024/01/13 08:11:23;;;;;;;26.73;17.83;;;5.10;60.70;;;;;;4986980;28;20259;-84
2024/01/13 08:13:49;;;;;;;31.03;19.30;;;5.10;60.50;;;;;;4997138;28;20226;-84
2024/01/13 08:16:14;;;;;;;31.23;19.40;;;5.10;60.20;;;;;;4988451;28;20189;-83
2024/01/13 08:18:41;;;;;;;27.70;18.33;;;5.10;60.10;;;;;;5006298;28;20285;-85
2024/01/13 08:21:06;;;;;;;28.77;18.57;;;5.10;60.00;;;;;;5007611;28;20189;-85
2024/01/13 08:23:33;;;;;;;33.37;19.73;;;5.10;60.00;;;;;;5007501;28;20179;-84
2024/01/13 08:25:59;;;;;;;29.30;20.70;;;5.10;59.70;;;;;;4996103;28;20654;-84
2024/01/13 08:28:25;;;;;;;27.00;18.07;;;5.10;60.20;;;;;;4991086;28;20258;-85
2024/01/13 08:30:50;;;;;;;26.53;18.17;;;5.10;59.70;;;;;;4993443;28;20191;-83
2024/01/13 08:33:16;;;;;;;27.37;19.37;;;5.10;59.50;;;;;;5008622;28;20556;-86
2024/01/13 08:35:42;;;;;;;28.03;17.87;;;5.20;59.60;;;;;;5011193;28;20187;-84
2024/01/13 08:38:08;;;;;;;25.93;17.77;;;5.10;59.40;;;;;;4999841;28;20194;-85
2024/01/13 08:40:33;;;;;;;27.63;17.07;;;5.10;59.40;;;;;;5014177;28;20183;-84
2024/01/13 08:43:02;;;;;;;25.93;15.40;;;5.10;59.40;;;;;;5015089;28;20282;-85
2024/01/13 08:45:29;;;;;;;30.87;18.00;;;5.10;59.30;;;;;;5008769;28;20230;-84
2024/01/13 08:47:58;;;;;;;22.57;15.97;;;5.10;59.20;;;;;;5009993;28;20209;-85
2024/01/13 08:50:24;;;;;;;26.83;16.20;;;5.10;59.30;;;;;;4995755;28;20179;-85
2024/01/13 08:52:54;;;;;;;24.63;16.93;;;5.00;58.90;;;;;;5012730;28;20187;-83
2024/01/13 08:55:21;;;;;;;28.17;15.87;;;5.00;59.00;;;;;;5010750;28;20207;-85
2024/01/13 08:57:46;;;;;;;23.80;14.53;;;5.00;58.80;;;;;;5010841;28;20187;-84
2024/01/13 09:00:13;;;;;;;24.33;15.30;;;5.00;58.90;;;;;;5008143;28;20659;-84
2024/01/13 09:02:39;;;;;;;22.57;15.73;;;5.10;59.10;;;;;;5012453;28;20187;-84
2024/01/13 09:05:08;;;;;;;26.03;16.17;;;5.00;58.50;;;;;;5011819;28;20183;-84
2024/01/13 09:07:35;;;;;;;24.97;15.90;;;5.10;58.70;;;;;;4994210;28;20187;-84
2024/01/13 09:10:01;;;;;;;26.83;16.07;;;5.10;58.70;;;;;;4994153;28;20576;-83
2024/01/13 09:12:27;;;;;;;25.60;15.63;;;5.00;58.60;;;;;;4992197;28;20195;-84
2024/01/13 09:14:53;;;;;;;23.23;14.87;;;5.00;58.60;;;;;;5007784;28;20584;-85
2024/01/13 09:17:18;;;;;;;27.60;16.13;;;5.00;58.50;;;;;;4993707;28;20183;-84
2024/01/13 09:19:44;;;;;;;30.53;18.40;;;5.00;58.60;;;;;;4994080;28;20252;-85
2024/01/13 09:22:10;;;;;;;25.27;16.47;;;5.00;58.70;;;;;;5011561;28;21020;-84
2024/01/13 09:24:35;;;;;;;24.80;15.73;;;5.00;58.50;;;;;;5012262;28;20217;-84
2024/01/13 09:27:01;;;;;;;27.23;16.30;;;5.00;58.60;;;;;;5002326;28;20191;-84
2024/01/13 09:29:27;;;;;;;32.27;17.47;;;5.10;58.70;;;;;;4997339;28;20289;-84
2024/01/13 09:31:52;;;;;;;26.17;15.57;;;5.10;58.60;;;;;;4994338;28;20249;-84
2024/01/13 09:34:18;;;;;;;27.97;16.43;;;5.00;58.60;;;;;;4993242;28;20646;-84
2024/01/13 09:36:44;;;;;;;24.77;15.80;;;5.00;58.60;;;;;;4998602;28;20195;-84
2024/01/13 09:39:11;;;;;;;24.43;17.40;;;5.00;59.10;;;;;;4994950;28;20183;-83
2024/01/13 09:41:47;;;;;;;23.83;16.97;;;4.90;58.60;;;;;;4995076;28;20172;-84
2024/01/13 09:44:29;;;;;;;24.90;16.53;;;4.90;58.40;;;;;;4990562;28;20253;-84
2024/01/13 09:46:58;;;;;;;28.90;18.37;;;4.90;58.60;;;;;;5015792;28;20269;-84
2024/01/13 09:49:30;;;;;;;26.00;18.07;;;4.90;58.70;;;;;;5000768;28;20231;-84
2024/01/13 09:51:57;;;;;;;24.27;17.27;;;5.00;58.80;;;;;;5019354;28;20178;-84
2024/01/13 09:54:25;;;;;;;30.77;19.43;;;4.90;58.60;;;;;;4999062;28;20206;-84
2024/01/13 09:56:51;;;;;;;26.73;18.40;;;4.90;58.70;;;;;;5022406;28;20194;-84
2024/01/13 09:59:19;;;;;;;30.37;18.17;;;5.00;58.80;;;;;;5020917;28;20189;-84
2024/01/13 10:01:45;;;;;;;34.83;19.77;;;4.90;58.70;;;;;;5022853;28;20186;-83
2024/01/13 10:04:12;;;;;;;31.03;20.00;;;4.80;58.60;;;;;;5017516;28;20246;-83
2024/01/13 10:06:39;;;;;;;31.77;20.17;;;4.80;59.20;;;;;;4994837;28;20320;-84
2024/01/13 10:09:06;;;;;;;35.00;21.23;;;4.80;58.90;;;;;;4999455;28;20260;-84
2024/01/13 10:11:31;;;;;;;32.33;20.87;;;4.90;59.00;;;;;;5001171;28;20671;-83
2024/01/13 10:14:13;;;;;;;30.00;20.50;;;4.90;59.00;;;;;;5001990;28;20225;-83
2024/01/13 10:16:39;;;;;;;34.03;20.57;;;4.90;58.80;;;;;;5015848;28;20191;-85
2024/01/13 10:19:07;;;;;;;31.00;19.43;;;4.90;58.60;;;;;;5027557;28;20186;-85
2024/01/13 10:21:33;;;;;;;29.43;19.17;;;4.90;58.70;;;;;;5002964;28;20237;-86
2024/01/13 10:24:00;;;;;;;32.53;20.67;;;4.90;58.80;;;;;;5001650;28;20187;-84
2024/01/13 10:26:28;;;;;;;32.10;19.73;;;4.80;58.60;;;;;;5018117;28;20262;-85
2024/01/13 10:28:58;;;;;;;32.53;19.57;;;4.70;58.60;;;;;;5005290;28;20293;-84
2024/01/13 10:31:24;;;;;;;31.50;19.40;;;4.70;58.70;;;;;;5008393;28;20261;-83
2024/01/13 10:33:51;;;;;;;30.20;20.03;;;4.70;58.80;;;;;;5010345;28;20201;-84
2024/01/13 10:36:21;;;;;;;35.27;20.57;;;4.60;58.70;;;;;;5012127;28;20182;-85
2024/01/13 10:38:46;;;;;;;33.33;20.77;;;4.50;58.80;;;;;;5010478;28;20253;-84
2024/01/13 10:41:12;;;;;;;32.10;19.33;;;4.50;59.00;;;;;;5002775;28;20187;-85
2024/01/13 10:43:40;;;;;;;26.63;18.00;;;4.50;59.20;;;;;;5021471;28;20186;-85
2024/01/13 10:46:13;;;;;;;28.83;19.20;;;4.60;59.20;;;;;;5015490;28;20225;-85
2024/01/13 10:48:47;;;;;;;27.80;17.87;;;4.50;59.00;;;;;;4995739;28;20710;-86
2024/01/13 10:51:30;;;;;;;28.70;19.33;;;4.50;59.10;;;;;;4996159;28;20654;-87
2024/01/13 10:53:59;;;;;;;31.67;19.37;;;4.40;59.00;;;;;;4994092;28;20270;-84
2024/01/13 10:56:26;;;;;;;27.13;18.07;;;4.40;59.30;;;;;;5001446;28;20642;-87
2024/01/13 10:58:53;;;;;;;30.83;20.33;;;4.40;59.40;;;;;;4997992;28;20194;-84
2024/01/13 11:01:19;;;;;;;29.20;17.57;;;4.50;59.40;;;;;;5018826;28;20187;-85
2024/01/13 11:03:47;;;;;;;27.70;17.90;;;4.50;59.30;;;;;;4988175;28;20196;-84
2024/01/13 11:06:13;;;;;;;26.17;17.30;;;4.60;59.40;;;;;;5009066;28;20189;-88
2024/01/13 11:08:39;;;;;;;26.13;18.07;;;4.70;59.40;;;;;;5005446;28;20215;-83
2024/01/13 11:11:08;;;;;;;24.30;17.20;;;4.80;59.20;;;;;;4986401;28;20206;-85
2024/01/13 11:13:45;;;;;;;27.27;18.20;;;4.70;59.10;;;;;;4983193;28;20195;-84
2024/01/13 11:16:14;;;;;;;25.27;19.03;;;4.70;59.10;;;;;;4976890;28;20197;-85
2024/01/13 11:18:48;;;;;;;34.03;20.37;;;4.70;59.00;;;;;;4985887;28;20202;-83
2024/01/13 11:21:17;;;;;;;30.43;19.47;;;4.60;58.90;;;;;;4994578;28;20201;-84
2024/01/13 11:23:56;;;;;;;30.37;19.17;;;4.70;59.20;;;;;;4996609;28;20182;-84
2024/01/13 11:26:32;;;;;;;29.27;18.80;;;4.80;59.30;;;;;;5000146;28;20179;-84
2024/01/13 11:28:59;;;;;;;29.30;19.57;;;4.60;59.10;;;;;;4996285;28;20253;-84
2024/01/13 11:31:29;;;;;;;30.07;20.30;;;4.60;59.10;;;;;;4983177;28;20612;-84
2024/01/13 11:33:59;;;;;;;29.70;19.73;;;4.60;59.20;;;;;;4987398;28;20183;-83
2024/01/13 11:36:28;;;;;;;29.03;20.33;;;4.60;59.30;;;;;;4983302;28;20184;-84
2024/01/13 11:38:56;;;;;;;29.40;19.43;;;4.70;59.40;;;;;;4989207;28;20180;-82
2024/01/13 11:41:22;;;;;;;28.83;19.43;;;4.80;59.30;;;;;;4987371;28;20436;-83
2024/01/13 11:43:48;;;;;;;30.13;19.53;;;4.70;59.30;;;;;;4999357;28;20187;-83
2024/01/13 11:46:17;;;;;;;27.57;19.77;;;4.80;59.50;;;;;;4983648;28;20203;-82
2024/01/13 11:48:43;;;;;;;28.10;19.30;;;4.90;59.40;;;;;;5000407;28;20220;-83
2024/01/13 11:51:12;;;;;;;25.67;19.10;;;4.90;59.30;;;;;;5001690;28;20649;-84
2024/01/13 11:53:43;;;;;;;25.47;17.93;;;4.90;59.20;;;;;;5001450;28;20183;-83
2024/01/13 11:56:16;;;;;;;24.93;17.73;;;4.90;59.10;;;;;;5002622;28;20614;-84
2024/01/13 11:58:41;;;;;;;26.03;18.77;;;4.90;58.90;;;;;;4999359;28;20198;-83
2024/01/13 12:01:11;;;;;;;27.20;18.87;;;4.80;58.80;;;;;;4986959;28;20351;-84
2024/01/13 12:03:41;;;;;;;27.37;18.53;;;4.80;58.70;;;;;;5000754;28;20282;-82
2024/01/13 12:06:11;;;;;;;24.43;17.47;;;4.80;58.90;;;;;;4990519;28;20254;-85
2024/01/13 12:08:37;;;;;;;23.63;16.97;;;4.90;59.10;;;;;;4986262;28;20877;-84
2024/01/13 12:11:03;;;;;;;26.93;18.77;;;5.00;59.10;;;;;;5005628;28;20191;-83
2024/01/13 12:13:28;;;;;;;21.93;16.07;;;5.00;59.00;;;;;;4990801;28;20347;-84
2024/01/13 12:16:03;;;;;;;22.47;15.13;;;5.10;59.10;;;;;;5007518;28;20191;-84
2024/01/13 12:18:29;;;;;;;25.07;17.07;;;5.00;58.90;;;;;;5007943;28;20190;-84
2024/01/13 12:21:01;;;;;;;25.43;17.23;;;5.00;58.70;;;;;;5006648;28;20706;-85
2024/01/13 12:23:27;;;;;;;22.63;16.73;;;4.90;58.50;;;;;;4987685;28;20510;-84
2024/01/13 12:25:52;;;;;;;29.07;17.67;;;4.90;58.40;;;;;;5005623;28;20187;-84
2024/01/13 12:28:21;;;;;;;27.53;18.47;;;4.80;58.40;;;;;;4987062;28;20526;-85
2024/01/13 12:30:51;;;;;;;27.30;18.07;;;4.90;58.70;;;;;;4986506;28;20256;-84
2024/01/13 12:33:17;;;;;;;28.97;17.23;;;4.90;58.90;;;;;;4989801;28;20262;-85
2024/01/13 12:35:43;;;;;;;29.53;18.60;;;4.90;59.00;;;;;;4987086;28;20286;-85
2024/01/13 12:38:10;;;;;;;27.13;17.53;;;4.90;59.00;;;;;;4990007;28;20187;-84
2024/01/13 12:40:36;;;;;;;27.63;18.27;;;4.90;58.70;;;;;;4983664;28;20676;-84